sensor_id;sensor_type;location;lat;lon;timestamp;P1;durP1;ratioP1;P2;durP2;ratioP2
8562;SDS011;16392;52.508;13.468;2022-09-09T00:01:49;442.55;;;120.95;;
8562;SDS011;16392;52.508;13.468;2022-09-09T00:04:23;433.23;;;116.82;;
8562;SDS011;16392;52.508;13.468;2022-09-09T00:06:56;439.98;;;125.03;;
8562;SDS011;16392;52.508;13.468;2022-09-09T00:09:29;438.73;;;125.78;;
8562;SDS011;16392;52.508;13.468;2022-09-09T00:12:05;441.15;;;126.45;;
8562;SDS011;16392;52.508;13.468;2022-09-09T00:14:38;438.52;;;126.72;;
8562;SDS011;16392;52.508;13.468;2022-09-09T00:17:12;437.38;;;120.93;;
8562;SDS011;16392;52.508;13.468;2022-09-09T00:19:46;436.02;;;121.38;;
8562;SDS011;16392;52.508;13.468;2022-09-09T00:22:20;434.77;;;119.82;;
8562;SDS011;16392;52.508;13.468;2022-09-09T00:24:51;436.15;;;122.32;;
8562;SDS011;16392;52.508;13.468;2022-09-09T00:27:22;433.27;;;115.10;;
8562;SDS011;16392;52.508;13.468;2022-09-09T00:29:57;434.67;;;118.25;;
8562;SDS011;16392;52.508;13.468;2022-09-09T00:32:29;438.92;;;122.85;;
8562;SDS011;16392;52.508;13.468;2022-09-09T00:34:59;433.42;;;118.93;;
8562;SDS011;16392;52.508;13.468;2022-09-09T00:37:28;434.15;;;116.72;;
8562;SDS011;16392;52.508;13.468;2022-09-09T00:39:59;434.25;;;119.80;;
8562;SDS011;16392;52.508;13.468;2022-09-09T00:42:32;437.42;;;119.45;;
8562;SDS011;16392;52.508;13.468;2022-09-09T00:45:10;439.45;;;125.10;;
8562;SDS011;16392;52.508;13.468;2022-09-09T00:47:47;436.60;;;122.80;;
8562;SDS011;16392;52.508;13.468;2022-09-09T00:50:22;431.85;;;115.82;;
8562;SDS011;16392;52.508;13.468;2022-09-09T00:53:01;434.55;;;122.55;;
8562;SDS011;16392;52.508;13.468;2022-09-09T00:55:38;432.63;;;116.63;;
8562;SDS011;16392;52.508;13.468;2022-09-09T00:58:10;438.20;;;123.30;;
8562;SDS011;16392;52.508;13.468;2022-09-09T01:00:40;437.17;;;120.45;;
8562;SDS011;16392;52.508;13.468;2022-09-09T01:06:12;437.50;;;116.13;;
8562;SDS011;16392;52.508;13.468;2022-09-09T01:08:50;431.45;;;115.38;;
8562;SDS011;16392;52.508;13.468;2022-09-09T01:11:29;433.58;;;120.88;;
8562;SDS011;16392;52.508;13.468;2022-09-09T01:14:05;432.23;;;117.85;;
8562;SDS011;16392;52.508;13.468;2022-09-09T01:16:39;435.48;;;118.65;;
8562;SDS011;16392;52.508;13.468;2022-09-09T01:19:09;433.33;;;116.85;;
8562;SDS011;16392;52.508;13.468;2022-09-09T01:21:46;434.38;;;119.47;;
8562;SDS011;16392;52.508;13.468;2022-09-09T01:24:20;439.00;;;121.50;;
8562;SDS011;16392;52.508;13.468;2022-09-09T01:26:52;434.98;;;121.65;;
8562;SDS011;16392;52.508;13.468;2022-09-09T01:29:23;436.80;;;118.88;;
8562;SDS011;16392;52.508;13.468;2022-09-09T01:31:54;434.77;;;115.35;;
8562;SDS011;16392;52.508;13.468;2022-09-09T01:34:23;434.15;;;115.38;;
8562;SDS011;16392;52.508;13.468;2022-09-09T01:36:53;435.27;;;115.43;;
8562;SDS011;16392;52.508;13.468;2022-09-09T01:39:24;434.25;;;116.80;;
8562;SDS011;16392;52.508;13.468;2022-09-09T01:41:53;436.30;;;121.60;;
8562;SDS011;16392;52.508;13.468;2022-09-09T01:44:22;433.92;;;113.13;;
8562;SDS011;16392;52.508;13.468;2022-09-09T01:46:49;438.25;;;120.53;;
8562;SDS011;16392;52.508;13.468;2022-09-09T01:49:16;431.35;;;111.75;;
8562;SDS011;16392;52.508;13.468;2022-09-09T01:51:43;430.50;;;111.60;;
8562;SDS011;16392;52.508;13.468;2022-09-09T01:54:13;436.08;;;125.00;;
8562;SDS011;16392;52.508;13.468;2022-09-09T01:56:41;436.15;;;114.70;;
8562;SDS011;16392;52.508;13.468;2022-09-09T01:59:21;436.58;;;118.00;;
8562;SDS011;16392;52.508;13.468;2022-09-09T02:01:57;439.10;;;120.60;;
8562;SDS011;16392;52.508;13.468;2022-09-09T02:04:36;431.60;;;111.00;;
8562;SDS011;16392;52.508;13.468;2022-09-09T02:07:06;430.10;;;110.70;;
8562;SDS011;16392;52.508;13.468;2022-09-09T02:09:46;433.40;;;118.93;;
8562;SDS011;16392;52.508;13.468;2022-09-09T02:12:18;432.65;;;114.80;;
8562;SDS011;16392;52.508;13.468;2022-09-09T02:14:50;432.17;;;114.50;;
8562;SDS011;16392;52.508;13.468;2022-09-09T02:17:22;431.50;;;107.95;;
8562;SDS011;16392;52.508;13.468;2022-09-09T02:19:53;432.70;;;114.50;;
8562;SDS011;16392;52.508;13.468;2022-09-09T02:22:26;432.20;;;115.28;;
8562;SDS011;16392;52.508;13.468;2022-09-09T02:24:56;431.00;;;113.53;;
8562;SDS011;16392;52.508;13.468;2022-09-09T02:27:25;429.60;;;113.85;;
8562;SDS011;16392;52.508;13.468;2022-09-09T02:29:53;440.15;;;120.28;;
8562;SDS011;16392;52.508;13.468;2022-09-09T02:32:24;433.83;;;114.82;;
8562;SDS011;16392;52.508;13.468;2022-09-09T02:34:52;433.10;;;110.47;;
8562;SDS011;16392;52.508;13.468;2022-09-09T02:37:24;434.00;;;114.25;;
8562;SDS011;16392;52.508;13.468;2022-09-09T02:39:58;433.65;;;111.88;;
8562;SDS011;16392;52.508;13.468;2022-09-09T02:42:25;431.55;;;114.38;;
8562;SDS011;16392;52.508;13.468;2022-09-09T02:44:51;435.23;;;117.68;;
8562;SDS011;16392;52.508;13.468;2022-09-09T02:47:24;433.33;;;114.85;;
8562;SDS011;16392;52.508;13.468;2022-09-09T02:50:02;429.17;;;110.95;;
8562;SDS011;16392;52.508;13.468;2022-09-09T02:52:36;431.00;;;111.07;;
8562;SDS011;16392;52.508;13.468;2022-09-09T02:55:12;432.27;;;111.22;;
8562;SDS011;16392;52.508;13.468;2022-09-09T02:57:46;430.27;;;113.95;;
8562;SDS011;16392;52.508;13.468;2022-09-09T03:00:15;434.90;;;115.00;;
8562;SDS011;16392;52.508;13.468;2022-09-09T03:02:42;433.67;;;109.20;;
8562;SDS011;16392;52.508;13.468;2022-09-09T03:05:10;429.20;;;107.60;;
8562;SDS011;16392;52.508;13.468;2022-09-09T03:07:38;429.92;;;109.75;;
8562;SDS011;16392;52.508;13.468;2022-09-09T03:10:05;428.10;;;108.50;;
8562;SDS011;16392;52.508;13.468;2022-09-09T03:12:33;429.65;;;108.78;;
8562;SDS011;16392;52.508;13.468;2022-09-09T03:14:59;447.17;;;113.50;;
8562;SDS011;16392;52.508;13.468;2022-09-09T03:17:27;441.67;;;112.47;;
8562;SDS011;16392;52.508;13.468;2022-09-09T03:19:54;432.20;;;114.18;;
8562;SDS011;16392;52.508;13.468;2022-09-09T03:22:23;434.25;;;108.63;;
8562;SDS011;16392;52.508;13.468;2022-09-09T03:24:50;431.48;;;109.80;;
8562;SDS011;16392;52.508;13.468;2022-09-09T03:27:17;429.73;;;110.07;;
8562;SDS011;16392;52.508;13.468;2022-09-09T03:29:44;436.25;;;115.60;;
8562;SDS011;16392;52.508;13.468;2022-09-09T03:32:12;430.13;;;108.60;;
8562;SDS011;16392;52.508;13.468;2022-09-09T03:34:43;431.25;;;110.93;;
8562;SDS011;16392;52.508;13.468;2022-09-09T03:37:14;432.85;;;109.57;;
8562;SDS011;16392;52.508;13.468;2022-09-09T03:39:42;433.90;;;108.07;;
8562;SDS011;16392;52.508;13.468;2022-09-09T03:42:09;430.55;;;107.63;;
8562;SDS011;16392;52.508;13.468;2022-09-09T03:44:39;430.90;;;107.25;;
8562;SDS011;16392;52.508;13.468;2022-09-09T03:47:06;430.55;;;108.78;;
8562;SDS011;16392;52.508;13.468;2022-09-09T03:49:33;430.67;;;104.32;;
8562;SDS011;16392;52.508;13.468;2022-09-09T03:52:01;433.23;;;113.88;;
8562;SDS011;16392;52.508;13.468;2022-09-09T03:54:28;427.17;;;105.45;;
8562;SDS011;16392;52.508;13.468;2022-09-09T03:56:54;428.60;;;109.65;;
8562;SDS011;16392;52.508;13.468;2022-09-09T03:59:21;428.63;;;107.35;;
8562;SDS011;16392;52.508;13.468;2022-09-09T04:01:48;429.30;;;108.05;;
8562;SDS011;16392;52.508;13.468;2022-09-09T04:04:14;428.33;;;105.05;;
8562;SDS011;16392;52.508;13.468;2022-09-09T04:06:41;427.40;;;102.30;;
8562;SDS011;16392;52.508;13.468;2022-09-09T04:09:09;427.35;;;106.53;;
8562;SDS011;16392;52.508;13.468;2022-09-09T04:11:35;433.88;;;109.20;;
8562;SDS011;16392;52.508;13.468;2022-09-09T04:14:02;433.00;;;108.45;;
8562;SDS011;16392;52.508;13.468;2022-09-09T04:16:31;434.65;;;112.43;;
8562;SDS011;16392;52.508;13.468;2022-09-09T04:18:57;430.30;;;110.50;;
8562;SDS011;16392;52.508;13.468;2022-09-09T04:21:24;431.52;;;110.03;;
8562;SDS011;16392;52.508;13.468;2022-09-09T04:23:51;430.48;;;105.68;;
8562;SDS011;16392;52.508;13.468;2022-09-09T04:26:19;427.90;;;107.03;;
8562;SDS011;16392;52.508;13.468;2022-09-09T04:28:45;427.77;;;107.90;;
8562;SDS011;16392;52.508;13.468;2022-09-09T04:31:15;430.00;;;105.03;;
8562;SDS011;16392;52.508;13.468;2022-09-09T04:33:43;426.83;;;105.47;;
8562;SDS011;16392;52.508;13.468;2022-09-09T04:36:10;428.98;;;106.95;;
8562;SDS011;16392;52.508;13.468;2022-09-09T04:38:37;427.20;;;106.63;;
8562;SDS011;16392;52.508;13.468;2022-09-09T04:41:04;430.35;;;110.45;;
8562;SDS011;16392;52.508;13.468;2022-09-09T04:43:33;428.38;;;107.47;;
8562;SDS011;16392;52.508;13.468;2022-09-09T04:46:00;429.48;;;109.70;;
8562;SDS011;16392;52.508;13.468;2022-09-09T04:48:27;425.65;;;105.03;;
8562;SDS011;16392;52.508;13.468;2022-09-09T04:50:54;426.98;;;109.90;;
8562;SDS011;16392;52.508;13.468;2022-09-09T04:53:21;427.67;;;111.40;;
8562;SDS011;16392;52.508;13.468;2022-09-09T04:55:48;431.10;;;112.15;;
8562;SDS011;16392;52.508;13.468;2022-09-09T04:58:15;429.83;;;112.60;;
8562;SDS011;16392;52.508;13.468;2022-09-09T05:00:43;429.52;;;116.05;;
8562;SDS011;16392;52.508;13.468;2022-09-09T05:03:10;433.83;;;117.47;;
8562;SDS011;16392;52.508;13.468;2022-09-09T05:05:37;434.85;;;115.10;;
8562;SDS011;16392;52.508;13.468;2022-09-09T05:08:05;433.25;;;118.00;;
8562;SDS011;16392;52.508;13.468;2022-09-09T05:10:33;442.33;;;122.15;;
8562;SDS011;16392;52.508;13.468;2022-09-09T05:13:02;443.77;;;127.97;;
8562;SDS011;16392;52.508;13.468;2022-09-09T05:15:29;449.25;;;129.98;;
8562;SDS011;16392;52.508;13.468;2022-09-09T05:17:57;461.85;;;139.05;;
8562;SDS011;16392;52.508;13.468;2022-09-09T05:20:25;459.70;;;133.90;;
8562;SDS011;16392;52.508;13.468;2022-09-09T05:22:52;466.23;;;147.32;;
8562;SDS011;16392;52.508;13.468;2022-09-09T05:25:19;466.55;;;145.90;;
8562;SDS011;16392;52.508;13.468;2022-09-09T05:27:47;471.75;;;157.65;;
8562;SDS011;16392;52.508;13.468;2022-09-09T05:30:14;470.80;;;158.38;;
8562;SDS011;16392;52.508;13.468;2022-09-09T05:32:41;473.95;;;170.63;;
8562;SDS011;16392;52.508;13.468;2022-09-09T05:35:09;476.50;;;176.07;;
8562;SDS011;16392;52.508;13.468;2022-09-09T05:37:36;470.48;;;164.80;;
8562;SDS011;16392;52.508;13.468;2022-09-09T05:40:03;475.63;;;181.60;;
8562;SDS011;16392;52.508;13.468;2022-09-09T05:42:30;479.75;;;189.20;;
8562;SDS011;16392;52.508;13.468;2022-09-09T05:44:57;483.38;;;190.43;;
8562;SDS011;16392;52.508;13.468;2022-09-09T05:47:24;483.73;;;205.50;;
8562;SDS011;16392;52.508;13.468;2022-09-09T05:49:52;485.08;;;208.63;;
8562;SDS011;16392;52.508;13.468;2022-09-09T05:52:21;487.70;;;217.85;;
8562;SDS011;16392;52.508;13.468;2022-09-09T05:54:48;496.63;;;242.05;;
8562;SDS011;16392;52.508;13.468;2022-09-09T05:57:15;502.08;;;259.17;;
8562;SDS011;16392;52.508;13.468;2022-09-09T05:59:42;502.70;;;270.85;;
8562;SDS011;16392;52.508;13.468;2022-09-09T06:02:08;502.48;;;276.98;;
8562;SDS011;16392;52.508;13.468;2022-09-09T06:04:35;504.70;;;282.95;;
8562;SDS011;16392;52.508;13.468;2022-09-09T06:07:02;507.02;;;294.02;;
8562;SDS011;16392;52.508;13.468;2022-09-09T06:09:30;511.23;;;300.15;;
8562;SDS011;16392;52.508;13.468;2022-09-09T06:11:56;510.30;;;299.73;;
8562;SDS011;16392;52.508;13.468;2022-09-09T06:14:23;511.30;;;302.35;;
8562;SDS011;16392;52.508;13.468;2022-09-09T06:16:52;509.83;;;299.45;;
8562;SDS011;16392;52.508;13.468;2022-09-09T06:19:18;509.45;;;298.33;;
8562;SDS011;16392;52.508;13.468;2022-09-09T06:21:45;507.45;;;298.92;;
8562;SDS011;16392;52.508;13.468;2022-09-09T06:24:12;511.20;;;299.65;;
8562;SDS011;16392;52.508;13.468;2022-09-09T06:26:43;510.77;;;308.77;;
8562;SDS011;16392;52.508;13.468;2022-09-09T06:29:10;511.27;;;311.40;;
8562;SDS011;16392;52.508;13.468;2022-09-09T06:31:37;516.15;;;336.33;;
8562;SDS011;16392;52.508;13.468;2022-09-09T06:34:05;520.03;;;341.50;;
8562;SDS011;16392;52.508;13.468;2022-09-09T06:36:33;522.50;;;350.55;;
8562;SDS011;16392;52.508;13.468;2022-09-09T06:39:02;522.38;;;363.38;;
8562;SDS011;16392;52.508;13.468;2022-09-09T06:41:29;523.75;;;375.13;;
8562;SDS011;16392;52.508;13.468;2022-09-09T06:43:59;524.13;;;377.13;;
8562;SDS011;16392;52.508;13.468;2022-09-09T06:46:26;528.33;;;396.05;;
8562;SDS011;16392;52.508;13.468;2022-09-09T06:48:55;522.65;;;367.42;;
8562;SDS011;16392;52.508;13.468;2022-09-09T06:51:24;516.25;;;344.73;;
8562;SDS011;16392;52.508;13.468;2022-09-09T06:53:52;522.03;;;353.92;;
8562;SDS011;16392;52.508;13.468;2022-09-09T06:56:22;519.53;;;357.25;;
8562;SDS011;16392;52.508;13.468;2022-09-09T06:58:50;525.63;;;347.90;;
8562;SDS011;16392;52.508;13.468;2022-09-09T07:01:19;513.88;;;340.45;;
8562;SDS011;16392;52.508;13.468;2022-09-09T07:03:48;520.00;;;355.88;;
8562;SDS011;16392;52.508;13.468;2022-09-09T07:06:17;529.10;;;393.75;;
8562;SDS011;16392;52.508;13.468;2022-09-09T07:08:48;528.80;;;398.63;;
8562;SDS011;16392;52.508;13.468;2022-09-09T07:11:16;531.92;;;422.48;;
8562;SDS011;16392;52.508;13.468;2022-09-09T07:13:43;537.63;;;440.20;;
8562;SDS011;16392;52.508;13.468;2022-09-09T07:16:10;539.38;;;460.27;;
8562;SDS011;16392;52.508;13.468;2022-09-09T07:18:40;542.35;;;468.63;;
8562;SDS011;16392;52.508;13.468;2022-09-09T07:21:07;543.50;;;478.73;;
8562;SDS011;16392;52.508;13.468;2022-09-09T07:23:35;577.88;;;516.72;;
8562;SDS011;16392;52.508;13.468;2022-09-09T07:26:02;574.17;;;513.05;;
8562;SDS011;16392;52.508;13.468;2022-09-09T07:28:29;615.83;;;553.72;;
8562;SDS011;16392;52.508;13.468;2022-09-09T07:30:56;593.30;;;532.10;;
8562;SDS011;16392;52.508;13.468;2022-09-09T07:33:26;593.97;;;532.70;;
8562;SDS011;16392;52.508;13.468;2022-09-09T07:36:01;593.05;;;531.60;;
8562;SDS011;16392;52.508;13.468;2022-09-09T07:38:29;590.72;;;529.15;;
8562;SDS011;16392;52.508;13.468;2022-09-09T07:41:02;586.92;;;525.60;;
8562;SDS011;16392;52.508;13.468;2022-09-09T07:43:30;593.88;;;532.40;;
8562;SDS011;16392;52.508;13.468;2022-09-09T07:45:57;616.20;;;554.25;;
8562;SDS011;16392;52.508;13.468;2022-09-09T07:48:25;643.15;;;580.53;;
8562;SDS011;16392;52.508;13.468;2022-09-09T07:50:51;681.78;;;618.50;;
8562;SDS011;16392;52.508;13.468;2022-09-09T07:53:19;675.15;;;611.95;;
8562;SDS011;16392;52.508;13.468;2022-09-09T07:55:47;699.45;;;635.67;;
8562;SDS011;16392;52.508;13.468;2022-09-09T07:58:14;701.72;;;637.97;;
8562;SDS011;16392;52.508;13.468;2022-09-09T08:00:41;704.08;;;640.65;;
8562;SDS011;16392;52.508;13.468;2022-09-09T08:03:08;691.22;;;627.83;;
8562;SDS011;16392;52.508;13.468;2022-09-09T08:05:35;701.22;;;637.45;;
8562;SDS011;16392;52.508;13.468;2022-09-09T08:08:02;696.47;;;633.13;;
8562;SDS011;16392;52.508;13.468;2022-09-09T08:10:30;697.72;;;634.30;;
8562;SDS011;16392;52.508;13.468;2022-09-09T08:12:57;702.17;;;638.58;;
8562;SDS011;16392;52.508;13.468;2022-09-09T08:15:23;683.97;;;621.08;;
8562;SDS011;16392;52.508;13.468;2022-09-09T08:17:50;660.10;;;597.58;;
8562;SDS011;16392;52.508;13.468;2022-09-09T08:20:23;641.13;;;578.92;;
8562;SDS011;16392;52.508;13.468;2022-09-09T08:22:51;629.05;;;567.15;;
8562;SDS011;16392;52.508;13.468;2022-09-09T08:25:17;593.38;;;532.17;;
8562;SDS011;16392;52.508;13.468;2022-09-09T08:27:45;566.67;;;505.85;;
8562;SDS011;16392;52.508;13.468;2022-09-09T08:30:12;540.53;;;471.27;;
8562;SDS011;16392;52.508;13.468;2022-09-09T08:32:39;533.88;;;427.73;;
8562;SDS011;16392;52.508;13.468;2022-09-09T08:35:06;528.42;;;410.13;;
8562;SDS011;16392;52.508;13.468;2022-09-09T08:37:33;529.83;;;410.40;;
8562;SDS011;16392;52.508;13.468;2022-09-09T08:40:00;520.53;;;367.88;;
8562;SDS011;16392;52.508;13.468;2022-09-09T08:42:29;520.85;;;360.77;;
8562;SDS011;16392;52.508;13.468;2022-09-09T08:47:56;520.67;;;358.10;;
8562;SDS011;16392;52.508;13.468;2022-09-09T08:50:32;516.65;;;343.58;;
8562;SDS011;16392;52.508;13.468;2022-09-09T08:53:04;517.50;;;350.85;;
8562;SDS011;16392;52.508;13.468;2022-09-09T08:55:37;517.53;;;349.20;;
8562;SDS011;16392;52.508;13.468;2022-09-09T08:58:11;517.35;;;343.08;;
8562;SDS011;16392;52.508;13.468;2022-09-09T09:00:44;517.15;;;315.73;;
8562;SDS011;16392;52.508;13.468;2022-09-09T09:03:28;507.75;;;309.48;;
8562;SDS011;16392;52.508;13.468;2022-09-09T09:06:01;508.50;;;299.42;;
8562;SDS011;16392;52.508;13.468;2022-09-09T09:08:35;506.20;;;305.63;;
8562;SDS011;16392;52.508;13.468;2022-09-09T09:11:11;511.52;;;324.80;;
8562;SDS011;16392;52.508;13.468;2022-09-09T09:13:39;517.28;;;350.73;;
8562;SDS011;16392;52.508;13.468;2022-09-09T09:16:15;524.60;;;380.70;;
8562;SDS011;16392;52.508;13.468;2022-09-09T09:18:49;527.47;;;397.58;;
8562;SDS011;16392;52.508;13.468;2022-09-09T09:21:18;539.53;;;454.83;;
8562;SDS011;16392;52.508;13.468;2022-09-09T09:23:54;544.17;;;475.13;;
8562;SDS011;16392;52.508;13.468;2022-09-09T09:26:23;544.50;;;482.05;;
8562;SDS011;16392;52.508;13.468;2022-09-09T09:28:55;559.25;;;498.63;;
8562;SDS011;16392;52.508;13.468;2022-09-09T09:31:25;576.67;;;515.83;;
8562;SDS011;16392;52.508;13.468;2022-09-09T09:33:53;584.58;;;523.58;;
8562;SDS011;16392;52.508;13.468;2022-09-09T09:36:21;596.17;;;534.80;;
8562;SDS011;16392;52.508;13.468;2022-09-09T09:38:52;612.97;;;550.65;;
8562;SDS011;16392;52.508;13.468;2022-09-09T09:41:31;603.22;;;541.95;;
8562;SDS011;16392;52.508;13.468;2022-09-09T09:43:59;630.42;;;568.45;;
8562;SDS011;16392;52.508;13.468;2022-09-09T09:46:28;635.38;;;573.45;;
8562;SDS011;16392;52.508;13.468;2022-09-09T09:48:58;637.30;;;575.10;;
8562;SDS011;16392;52.508;13.468;2022-09-09T09:51:26;635.60;;;573.72;;
8562;SDS011;16392;52.508;13.468;2022-09-09T09:53:54;620.65;;;559.08;;
8562;SDS011;16392;52.508;13.468;2022-09-09T09:56:34;633.60;;;571.45;;
8562;SDS011;16392;52.508;13.468;2022-09-09T09:59:02;619.63;;;558.00;;
8562;SDS011;16392;52.508;13.468;2022-09-09T10:01:31;637.92;;;575.38;;
8562;SDS011;16392;52.508;13.468;2022-09-09T10:04:00;642.88;;;580.80;;
8562;SDS011;16392;52.508;13.468;2022-09-09T10:06:29;671.47;;;608.38;;
8562;SDS011;16392;52.508;13.468;2022-09-09T10:08:57;699.83;;;636.25;;
8562;SDS011;16392;52.508;13.468;2022-09-09T10:11:33;681.17;;;618.53;;
8562;SDS011;16392;52.508;13.468;2022-09-09T10:14:11;696.15;;;632.85;;
8562;SDS011;16392;52.508;13.468;2022-09-09T10:16:50;676.55;;;613.72;;
8562;SDS011;16392;52.508;13.468;2022-09-09T10:19:28;660.45;;;598.05;;
8562;SDS011;16392;52.508;13.468;2022-09-09T10:24:54;607.10;;;545.92;;
8562;SDS011;16392;52.508;13.468;2022-09-09T10:27:33;610.63;;;549.25;;
8562;SDS011;16392;52.508;13.468;2022-09-09T10:30:12;611.40;;;549.95;;
8562;SDS011;16392;52.508;13.468;2022-09-09T10:32:46;601.15;;;540.17;;
8562;SDS011;16392;52.508;13.468;2022-09-09T10:35:20;620.50;;;558.97;;
8562;SDS011;16392;52.508;13.468;2022-09-09T10:38:08;621.15;;;559.53;;
8562;SDS011;16392;52.508;13.468;2022-09-09T10:40:48;618.92;;;557.35;;
8562;SDS011;16392;52.508;13.468;2022-09-09T10:46:31;587.92;;;526.78;;
8562;SDS011;16392;52.508;13.468;2022-09-09T10:49:12;598.63;;;537.42;;
8562;SDS011;16392;52.508;13.468;2022-09-09T10:51:50;575.40;;;514.58;;
8562;SDS011;16392;52.508;13.468;2022-09-09T10:54:28;563.83;;;503.23;;
8562;SDS011;16392;52.508;13.468;2022-09-09T10:57:03;560.35;;;499.80;;
8562;SDS011;16392;52.508;13.468;2022-09-09T10:59:35;536.55;;;468.52;;
8562;SDS011;16392;52.508;13.468;2022-09-09T11:02:10;535.70;;;468.35;;
8562;SDS011;16392;52.508;13.468;2022-09-09T11:04:44;564.75;;;504.08;;
8562;SDS011;16392;52.508;13.468;2022-09-09T11:07:17;575.15;;;514.45;;
8562;SDS011;16392;52.508;13.468;2022-09-09T11:09:52;569.28;;;508.92;;
8562;SDS011;16392;52.508;13.468;2022-09-09T11:12:25;584.72;;;524.03;;
8562;SDS011;16392;52.508;13.468;2022-09-09T11:14:55;589.78;;;528.75;;
8562;SDS011;16392;52.508;13.468;2022-09-09T11:17:30;608.88;;;547.60;;
8562;SDS011;16392;52.508;13.468;2022-09-09T11:20:12;608.20;;;547.03;;
8562;SDS011;16392;52.508;13.468;2022-09-09T11:22:42;575.63;;;515.10;;
8562;SDS011;16392;52.508;13.468;2022-09-09T11:25:15;612.72;;;551.28;;
8562;SDS011;16392;52.508;13.468;2022-09-09T11:27:48;586.55;;;525.58;;
8562;SDS011;16392;52.508;13.468;2022-09-09T11:30:33;583.97;;;523.22;;
8562;SDS011;16392;52.508;13.468;2022-09-09T11:33:12;572.58;;;512.05;;
8562;SDS011;16392;52.508;13.468;2022-09-09T11:36:05;563.78;;;503.13;;
8562;SDS011;16392;52.508;13.468;2022-09-09T11:38:56;553.55;;;493.27;;
8562;SDS011;16392;52.508;13.468;2022-09-09T11:41:32;555.60;;;494.67;;
8562;SDS011;16392;52.508;13.468;2022-09-09T11:44:08;549.53;;;489.20;;
8562;SDS011;16392;52.508;13.468;2022-09-09T11:46:37;561.40;;;500.77;;
8562;SDS011;16392;52.508;13.468;2022-09-09T11:49:06;549.20;;;488.98;;
8562;SDS011;16392;52.508;13.468;2022-09-09T11:51:54;542.38;;;481.13;;
8562;SDS011;16392;52.508;13.468;2022-09-09T11:54:28;550.65;;;490.55;;
8562;SDS011;16392;52.508;13.468;2022-09-09T11:56:57;564.83;;;504.23;;
8562;SDS011;16392;52.508;13.468;2022-09-09T11:59:25;555.90;;;495.73;;
8562;SDS011;16392;52.508;13.468;2022-09-09T12:01:57;557.00;;;496.83;;
8562;SDS011;16392;52.508;13.468;2022-09-09T12:04:27;594.63;;;533.42;;
8562;SDS011;16392;52.508;13.468;2022-09-09T12:06:59;584.55;;;523.65;;
8562;SDS011;16392;52.508;13.468;2022-09-09T12:09:29;566.10;;;505.73;;
8562;SDS011;16392;52.508;13.468;2022-09-09T12:12:06;559.15;;;498.67;;
8562;SDS011;16392;52.508;13.468;2022-09-09T12:14:54;571.05;;;510.23;;
8562;SDS011;16392;52.508;13.468;2022-09-09T12:17:24;559.15;;;498.77;;
8562;SDS011;16392;52.508;13.468;2022-09-09T12:20:00;573.78;;;513.33;;
8562;SDS011;16392;52.508;13.468;2022-09-09T12:22:43;577.25;;;516.67;;
8562;SDS011;16392;52.508;13.468;2022-09-09T12:25:21;593.47;;;532.15;;
8562;SDS011;16392;52.508;13.468;2022-09-09T12:27:57;587.88;;;526.50;;
8562;SDS011;16392;52.508;13.468;2022-09-09T12:30:32;593.65;;;532.53;;
8562;SDS011;16392;52.508;13.468;2022-09-09T12:33:07;618.63;;;557.05;;
8562;SDS011;16392;52.508;13.468;2022-09-09T12:35:37;605.97;;;544.83;;
8562;SDS011;16392;52.508;13.468;2022-09-09T12:38:10;616.15;;;554.80;;
8562;SDS011;16392;52.508;13.468;2022-09-09T12:40:53;603.25;;;542.17;;
8562;SDS011;16392;52.508;13.468;2022-09-09T12:43:21;592.42;;;531.40;;
8562;SDS011;16392;52.508;13.468;2022-09-09T12:45:50;575.20;;;514.63;;
8562;SDS011;16392;52.508;13.468;2022-09-09T12:48:23;561.92;;;501.65;;
8562;SDS011;16392;52.508;13.468;2022-09-09T12:50:55;564.25;;;503.92;;
8562;SDS011;16392;52.508;13.468;2022-09-09T12:53:24;554.55;;;494.13;;
8562;SDS011;16392;52.508;13.468;2022-09-09T12:55:54;540.63;;;478.02;;
8562;SDS011;16392;52.508;13.468;2022-09-09T12:58:23;544.83;;;483.23;;
8562;SDS011;16392;52.508;13.468;2022-09-09T13:00:51;537.50;;;468.08;;
8562;SDS011;16392;52.508;13.468;2022-09-09T13:03:21;547.40;;;485.65;;
8562;SDS011;16392;52.508;13.468;2022-09-09T13:05:50;552.20;;;491.77;;
8562;SDS011;16392;52.508;13.468;2022-09-09T13:08:18;539.42;;;472.38;;
8562;SDS011;16392;52.508;13.468;2022-09-09T13:10:48;541.85;;;478.45;;
8562;SDS011;16392;52.508;13.468;2022-09-09T13:13:19;542.50;;;478.65;;
8562;SDS011;16392;52.508;13.468;2022-09-09T13:15:49;542.53;;;479.58;;
8562;SDS011;16392;52.508;13.468;2022-09-09T13:18:18;539.55;;;468.17;;
8562;SDS011;16392;52.508;13.468;2022-09-09T13:20:48;535.22;;;448.33;;
8562;SDS011;16392;52.508;13.468;2022-09-09T13:23:16;543.78;;;481.38;;
8562;SDS011;16392;52.508;13.468;2022-09-09T13:25:54;541.67;;;478.25;;
8562;SDS011;16392;52.508;13.468;2022-09-09T13:28:22;540.78;;;474.65;;
8562;SDS011;16392;52.508;13.468;2022-09-09T13:30:56;541.17;;;479.20;;
8562;SDS011;16392;52.508;13.468;2022-09-09T13:33:31;542.83;;;482.90;;
8562;SDS011;16392;52.508;13.468;2022-09-09T13:35:59;545.53;;;484.67;;
8562;SDS011;16392;52.508;13.468;2022-09-09T13:38:30;541.03;;;478.70;;
8562;SDS011;16392;52.508;13.468;2022-09-09T13:41:02;587.35;;;526.08;;
8562;SDS011;16392;52.508;13.468;2022-09-09T13:43:31;584.03;;;522.90;;
8562;SDS011;16392;52.508;13.468;2022-09-09T13:46:02;579.58;;;518.88;;
8562;SDS011;16392;52.508;13.468;2022-09-09T13:48:31;592.47;;;531.63;;
8562;SDS011;16392;52.508;13.468;2022-09-09T13:50:59;598.65;;;537.67;;
8562;SDS011;16392;52.508;13.468;2022-09-09T13:53:28;612.38;;;551.10;;
8562;SDS011;16392;52.508;13.468;2022-09-09T13:55:56;636.28;;;574.22;;
8562;SDS011;16392;52.508;13.468;2022-09-09T13:58:24;672.65;;;609.78;;
8562;SDS011;16392;52.508;13.468;2022-09-09T14:00:51;682.00;;;619.17;;
8562;SDS011;16392;52.508;13.468;2022-09-09T14:03:18;686.25;;;623.33;;
8562;SDS011;16392;52.508;13.468;2022-09-09T14:05:46;658.17;;;595.55;;
8562;SDS011;16392;52.508;13.468;2022-09-09T14:08:16;632.97;;;571.00;;
8562;SDS011;16392;52.508;13.468;2022-09-09T14:10:52;615.28;;;553.67;;
8562;SDS011;16392;52.508;13.468;2022-09-09T14:13:20;594.47;;;533.30;;
8562;SDS011;16392;52.508;13.468;2022-09-09T14:15:49;555.08;;;494.73;;
8562;SDS011;16392;52.508;13.468;2022-09-09T14:18:15;560.05;;;499.55;;
8562;SDS011;16392;52.508;13.468;2022-09-09T14:20:43;541.65;;;480.35;;
8562;SDS011;16392;52.508;13.468;2022-09-09T14:23:10;550.47;;;490.23;;
8562;SDS011;16392;52.508;13.468;2022-09-09T14:25:39;534.80;;;456.38;;
8562;SDS011;16392;52.508;13.468;2022-09-09T14:28:07;544.50;;;483.63;;